< < Back
Terminal Aerodrome Forecast


Current Version              Previous Versions:   1  2  3  4  5  6  7  8  9  

Terminal Aerodrome Forecast

522
FTUS44 KOHX 010800 AAA
TAFCSV
TAF AMD
KCSV 010810Z 0108/0206 00000KT P6SM OVC150
     FM011000 00000KT 5SM BR BKN008 OVC100
     FM011500 20006KT 6SM HZ BKN020
     FM011600 22008KT P6SM SCT040
     FM020100 18003KT P6SM SKC=



Latest METAR

428
SAUS70 KWBC 011100 RRJ
MTRCSV
METAR KCSV 011053Z AUTO 00000KT 8SM FEW036 BKN110 21/19 A3017 RMK AO2
SLP197 T02060189


USA.gov is the U.S. government's official web portal to all federal, state and local government web resources and services.